sensor_id;sensor_type;location;lat;lon;timestamp;pressure;altitude;pressure_sealevel;temperature;humidity
7264;BME280;3673;52.480;13.348;2023-02-12T00:00:42;102933.00;;;12.16;64.31
7264;BME280;3673;52.480;13.348;2023-02-12T00:03:10;102919.94;;;12.19;64.07
7264;BME280;3673;52.480;13.348;2023-02-12T00:05:39;102924.69;;;11.71;65.09
7264;BME280;3673;52.480;13.348;2023-02-12T00:08:06;102926.88;;;11.85;65.73
7264;BME280;3673;52.480;13.348;2023-02-12T00:10:33;102921.81;;;11.63;65.45
7264;BME280;3673;52.480;13.348;2023-02-12T00:13:00;102929.34;;;11.81;65.13
7264;BME280;3673;52.480;13.348;2023-02-12T00:15:27;102931.59;;;11.69;65.15
7264;BME280;3673;52.480;13.348;2023-02-12T00:17:54;102930.25;;;11.53;65.90
7264;BME280;3673;52.480;13.348;2023-02-12T00:20:20;102934.44;;;11.47;66.01
7264;BME280;3673;52.480;13.348;2023-02-12T00:22:48;102938.69;;;11.43;66.08
7264;BME280;3673;52.480;13.348;2023-02-12T00:25:15;102947.84;;;11.84;64.73
7264;BME280;3673;52.480;13.348;2023-02-12T00:27:43;102953.75;;;11.77;64.92
7264;BME280;3673;52.480;13.348;2023-02-12T00:30:12;102947.63;;;11.78;64.62
7264;BME280;3673;52.480;13.348;2023-02-12T00:32:38;102953.50;;;11.99;63.96
7264;BME280;3673;52.480;13.348;2023-02-12T00:35:06;102952.97;;;12.11;63.83
7264;BME280;3673;52.480;13.348;2023-02-12T00:37:33;102943.91;;;12.00;64.24
7264;BME280;3673;52.480;13.348;2023-02-12T00:40:01;102946.63;;;11.73;64.81
7264;BME280;3673;52.480;13.348;2023-02-12T00:42:28;102948.00;;;11.90;64.49
7264;BME280;3673;52.480;13.348;2023-02-12T00:44:54;102952.59;;;11.97;64.32
7264;BME280;3673;52.480;13.348;2023-02-12T00:47:21;102952.09;;;11.80;64.51
7264;BME280;3673;52.480;13.348;2023-02-12T00:49:48;102946.63;;;11.73;64.77
7264;BME280;3673;52.480;13.348;2023-02-12T00:52:14;102943.50;;;11.58;65.09
7264;BME280;3673;52.480;13.348;2023-02-12T00:54:41;102968.03;;;11.88;64.64
7264;BME280;3673;52.480;13.348;2023-02-12T00:57:09;102963.50;;;11.82;64.54
7264;BME280;3673;52.480;13.348;2023-02-12T00:59:36;102962.41;;;11.48;65.29
7264;BME280;3673;52.480;13.348;2023-02-12T01:02:04;102959.28;;;11.87;64.42
7264;BME280;3673;52.480;13.348;2023-02-12T01:04:31;102961.09;;;11.62;65.34
7264;BME280;3673;52.480;13.348;2023-02-12T01:06:58;102965.78;;;11.70;64.48
7264;BME280;3673;52.480;13.348;2023-02-12T01:09:25;102974.31;;;11.93;64.43
7264;BME280;3673;52.480;13.348;2023-02-12T01:11:51;102977.88;;;11.95;63.88
7264;BME280;3673;52.480;13.348;2023-02-12T01:14:20;102971.28;;;11.79;64.20
7264;BME280;3673;52.480;13.348;2023-02-12T01:16:47;102978.41;;;11.83;63.87
7264;BME280;3673;52.480;13.348;2023-02-12T01:19:14;102972.94;;;11.76;64.34
7264;BME280;3673;52.480;13.348;2023-02-12T01:21:41;102968.41;;;11.70;64.30
7264;BME280;3673;52.480;13.348;2023-02-12T01:24:08;102973.59;;;11.42;65.21
7264;BME280;3673;52.480;13.348;2023-02-12T01:26:35;102985.91;;;11.45;64.86
7264;BME280;3673;52.480;13.348;2023-02-12T01:29:06;102982.59;;;11.77;64.34
7264;BME280;3673;52.480;13.348;2023-02-12T01:31:37;102974.59;;;11.46;65.36
7264;BME280;3673;52.480;13.348;2023-02-12T01:34:06;102977.78;;;11.64;64.67
7264;BME280;3673;52.480;13.348;2023-02-12T01:36:33;102984.13;;;11.70;64.40
7264;BME280;3673;52.480;13.348;2023-02-12T01:39:01;102985.84;;;11.70;64.59
7264;BME280;3673;52.480;13.348;2023-02-12T01:41:30;102987.25;;;11.87;63.97
7264;BME280;3673;52.480;13.348;2023-02-12T01:44:18;102990.41;;;11.75;64.42
7264;BME280;3673;52.480;13.348;2023-02-12T01:46:48;102991.22;;;11.74;64.68
7264;BME280;3673;52.480;13.348;2023-02-12T01:49:18;102994.09;;;11.82;64.24
7264;BME280;3673;52.480;13.348;2023-02-12T01:51:54;102990.38;;;11.74;64.27
7264;BME280;3673;52.480;13.348;2023-02-12T01:54:26;103006.56;;;11.62;64.49
7264;BME280;3673;52.480;13.348;2023-02-12T01:56:54;103002.53;;;11.72;64.66
7264;BME280;3673;52.480;13.348;2023-02-12T01:59:21;103005.53;;;11.84;63.93
7264;BME280;3673;52.480;13.348;2023-02-12T02:01:50;103005.47;;;11.56;64.14
7264;BME280;3673;52.480;13.348;2023-02-12T02:04:21;103012.06;;;11.43;65.07
7264;BME280;3673;52.480;13.348;2023-02-12T02:06:55;103014.06;;;11.77;64.34
7264;BME280;3673;52.480;13.348;2023-02-12T02:09:23;103010.28;;;11.42;64.66
7264;BME280;3673;52.480;13.348;2023-02-12T02:11:50;103015.16;;;11.58;64.89
7264;BME280;3673;52.480;13.348;2023-02-12T02:14:35;103015.78;;;11.76;64.29
7264;BME280;3673;52.480;13.348;2023-02-12T02:17:19;103019.22;;;11.74;63.89
7264;BME280;3673;52.480;13.348;2023-02-12T02:23:33;103013.50;;;11.87;63.64
7264;BME280;3673;52.480;13.348;2023-02-12T02:29:45;103013.44;;;11.59;64.72
7264;BME280;3673;52.480;13.348;2023-02-12T02:32:23;103008.00;;;11.79;64.23
7264;BME280;3673;52.480;13.348;2023-02-12T02:34:57;103006.28;;;11.80;63.63
7264;BME280;3673;52.480;13.348;2023-02-12T02:37:31;103008.28;;;11.88;63.82
7264;BME280;3673;52.480;13.348;2023-02-12T02:40:02;103014.41;;;11.89;63.79
7264;BME280;3673;52.480;13.348;2023-02-12T02:42:36;103014.09;;;11.52;64.39
7264;BME280;3673;52.480;13.348;2023-02-12T02:45:10;103015.78;;;11.76;64.07
7264;BME280;3673;52.480;13.348;2023-02-12T02:47:43;103015.69;;;11.73;64.08
7264;BME280;3673;52.480;13.348;2023-02-12T02:50:14;103028.53;;;11.39;64.93
7264;BME280;3673;52.480;13.348;2023-02-12T02:52:48;103032.16;;;11.43;65.33
7264;BME280;3673;52.480;13.348;2023-02-12T02:55:18;103018.41;;;11.50;65.08
7264;BME280;3673;52.480;13.348;2023-02-12T02:57:51;103021.13;;;11.79;64.38
7264;BME280;3673;52.480;13.348;2023-02-12T03:00:24;103028.47;;;11.91;63.77
7264;BME280;3673;52.480;13.348;2023-02-12T03:02:59;103026.41;;;11.81;64.06
7264;BME280;3673;52.480;13.348;2023-02-12T03:05:31;103033.34;;;12.07;63.42
7264;BME280;3673;52.480;13.348;2023-02-12T03:08:03;103032.13;;;11.69;64.49
7264;BME280;3673;52.480;13.348;2023-02-12T03:10:36;103038.41;;;11.73;64.26
7264;BME280;3673;52.480;13.348;2023-02-12T03:13:08;103042.84;;;11.75;64.19
7264;BME280;3673;52.480;13.348;2023-02-12T03:15:40;103047.13;;;12.00;63.85
7264;BME280;3673;52.480;13.348;2023-02-12T03:18:15;103050.50;;;11.96;64.00
7264;BME280;3673;52.480;13.348;2023-02-12T03:20:47;103059.56;;;11.79;63.84
7264;BME280;3673;52.480;13.348;2023-02-12T03:23:21;103061.00;;;11.98;63.61
7264;BME280;3673;52.480;13.348;2023-02-12T03:25:53;103052.31;;;11.99;63.47
7264;BME280;3673;52.480;13.348;2023-02-12T03:28:26;103050.16;;;12.14;63.34
7264;BME280;3673;52.480;13.348;2023-02-12T03:31:04;103060.75;;;12.17;63.04
7264;BME280;3673;52.480;13.348;2023-02-12T03:33:43;103059.69;;;12.10;63.15
7264;BME280;3673;52.480;13.348;2023-02-12T03:36:25;103059.19;;;12.23;62.78
7264;BME280;3673;52.480;13.348;2023-02-12T03:38:56;103054.72;;;12.21;63.01
7264;BME280;3673;52.480;13.348;2023-02-12T03:41:33;103061.28;;;12.35;62.41
7264;BME280;3673;52.480;13.348;2023-02-12T03:44:09;103063.69;;;11.99;63.52
7264;BME280;3673;52.480;13.348;2023-02-12T03:46:41;103065.69;;;12.08;62.92
7264;BME280;3673;52.480;13.348;2023-02-12T03:49:19;103064.28;;;12.19;62.56
7264;BME280;3673;52.480;13.348;2023-02-12T03:51:47;103065.03;;;12.15;62.68
7264;BME280;3673;52.480;13.348;2023-02-12T03:54:18;103072.72;;;12.07;62.67
7264;BME280;3673;52.480;13.348;2023-02-12T03:56:48;103072.72;;;12.09;63.09
7264;BME280;3673;52.480;13.348;2023-02-12T03:59:18;103071.56;;;12.27;62.24
7264;BME280;3673;52.480;13.348;2023-02-12T04:01:45;103081.91;;;12.23;62.49
7264;BME280;3673;52.480;13.348;2023-02-12T04:04:14;103082.00;;;12.26;62.13
7264;BME280;3673;52.480;13.348;2023-02-12T04:06:42;103083.81;;;12.27;62.42
7264;BME280;3673;52.480;13.348;2023-02-12T04:09:12;103089.13;;;12.30;62.21
7264;BME280;3673;52.480;13.348;2023-02-12T04:11:52;103091.63;;;12.25;62.54
7264;BME280;3673;52.480;13.348;2023-02-12T04:14:33;103086.50;;;12.30;62.02
7264;BME280;3673;52.480;13.348;2023-02-12T04:17:07;103085.75;;;12.34;61.93
7264;BME280;3673;52.480;13.348;2023-02-12T04:19:44;103086.53;;;12.31;61.98
7264;BME280;3673;52.480;13.348;2023-02-12T04:22:29;103092.25;;;12.17;62.39
7264;BME280;3673;52.480;13.348;2023-02-12T04:25:15;103103.00;;;11.71;63.09
7264;BME280;3673;52.480;13.348;2023-02-12T04:27:54;103097.66;;;11.95;62.97
7264;BME280;3673;52.480;13.348;2023-02-12T04:30:27;103097.47;;;11.88;62.77
7264;BME280;3673;52.480;13.348;2023-02-12T04:32:59;103092.22;;;11.88;63.01
7264;BME280;3673;52.480;13.348;2023-02-12T04:35:31;103095.66;;;11.86;63.30
7264;BME280;3673;52.480;13.348;2023-02-12T04:38:06;103093.72;;;11.80;63.36
7264;BME280;3673;52.480;13.348;2023-02-12T04:40:37;103097.44;;;11.62;63.83
7264;BME280;3673;52.480;13.348;2023-02-12T04:43:05;103088.69;;;11.88;63.57
7264;BME280;3673;52.480;13.348;2023-02-12T04:45:34;103103.78;;;11.95;63.05
7264;BME280;3673;52.480;13.348;2023-02-12T04:48:02;103092.84;;;12.08;62.45
7264;BME280;3673;52.480;13.348;2023-02-12T04:50:38;103093.47;;;12.00;62.60
7264;BME280;3673;52.480;13.348;2023-02-12T04:53:05;103088.78;;;11.91;62.89
7264;BME280;3673;52.480;13.348;2023-02-12T04:55:32;103098.53;;;11.94;62.69
7264;BME280;3673;52.480;13.348;2023-02-12T04:57:59;103091.41;;;11.91;62.77
7264;BME280;3673;52.480;13.348;2023-02-12T05:00:26;103098.06;;;12.07;62.15
7264;BME280;3673;52.480;13.348;2023-02-12T05:02:53;103105.19;;;11.57;63.11
7264;BME280;3673;52.480;13.348;2023-02-12T05:05:20;103105.28;;;11.60;63.61
7264;BME280;3673;52.480;13.348;2023-02-12T05:07:48;103093.63;;;11.77;63.44
7264;BME280;3673;52.480;13.348;2023-02-12T05:10:15;103104.88;;;11.73;63.10
7264;BME280;3673;52.480;13.348;2023-02-12T05:12:42;103102.75;;;11.63;63.72
7264;BME280;3673;52.480;13.348;2023-02-12T05:15:09;103103.34;;;11.81;63.14
7264;BME280;3673;52.480;13.348;2023-02-12T05:17:36;103112.66;;;11.72;62.80
7264;BME280;3673;52.480;13.348;2023-02-12T05:20:04;103104.88;;;11.73;62.80
7264;BME280;3673;52.480;13.348;2023-02-12T05:22:31;103103.00;;;11.44;63.95
7264;BME280;3673;52.480;13.348;2023-02-12T05:24:59;103112.53;;;11.69;63.13
7264;BME280;3673;52.480;13.348;2023-02-12T05:27:26;103118.47;;;11.63;63.54
7264;BME280;3673;52.480;13.348;2023-02-12T05:29:52;103118.13;;;11.53;64.00
7264;BME280;3673;52.480;13.348;2023-02-12T05:32:21;103107.78;;;11.82;63.02
7264;BME280;3673;52.480;13.348;2023-02-12T05:34:48;103119.91;;;11.54;63.55
7264;BME280;3673;52.480;13.348;2023-02-12T05:37:14;103124.63;;;11.64;63.64
7264;BME280;3673;52.480;13.348;2023-02-12T05:39:41;103117.25;;;11.77;62.94
7264;BME280;3673;52.480;13.348;2023-02-12T05:42:09;103131.28;;;11.79;63.22
7264;BME280;3673;52.480;13.348;2023-02-12T05:44:36;103132.03;;;11.75;63.22
7264;BME280;3673;52.480;13.348;2023-02-12T05:47:03;103141.22;;;11.90;62.81
7264;BME280;3673;52.480;13.348;2023-02-12T05:49:30;103134.19;;;11.88;63.06
7264;BME280;3673;52.480;13.348;2023-02-12T05:51:56;103128.31;;;11.44;63.75
7264;BME280;3673;52.480;13.348;2023-02-12T05:54:23;103129.63;;;11.58;63.51
7264;BME280;3673;52.480;13.348;2023-02-12T05:56:50;103130.63;;;11.61;63.97
7264;BME280;3673;52.480;13.348;2023-02-12T05:59:21;103134.19;;;11.88;63.16
7264;BME280;3673;52.480;13.348;2023-02-12T06:01:50;103124.25;;;11.78;63.43
7264;BME280;3673;52.480;13.348;2023-02-12T06:04:20;103121.53;;;11.75;63.06
7264;BME280;3673;52.480;13.348;2023-02-12T06:06:48;103130.66;;;11.88;62.97
7264;BME280;3673;52.480;13.348;2023-02-12T06:09:15;103132.03;;;11.75;63.45
7264;BME280;3673;52.480;13.348;2023-02-12T06:11:42;103131.03;;;11.72;63.53
7264;BME280;3673;52.480;13.348;2023-02-12T06:14:13;103130.72;;;11.64;63.63
7264;BME280;3673;52.480;13.348;2023-02-12T06:16:44;103132.97;;;11.52;63.83
7264;BME280;3673;52.480;13.348;2023-02-12T06:19:12;103142.22;;;11.68;63.89
7264;BME280;3673;52.480;13.348;2023-02-12T06:21:39;103149.09;;;11.64;63.68
7264;BME280;3673;52.480;13.348;2023-02-12T06:24:06;103147.13;;;11.57;63.34
7264;BME280;3673;52.480;13.348;2023-02-12T06:26:33;103156.53;;;11.51;63.92
7264;BME280;3673;52.480;13.348;2023-02-12T06:29:00;103166.47;;;11.35;64.21
7264;BME280;3673;52.480;13.348;2023-02-12T06:31:29;103175.94;;;11.32;64.59
7264;BME280;3673;52.480;13.348;2023-02-12T06:34:02;103175.50;;;11.44;63.86
7264;BME280;3673;52.480;13.348;2023-02-12T06:36:29;103185.94;;;11.67;63.65
7264;BME280;3673;52.480;13.348;2023-02-12T06:38:56;103183.13;;;11.37;63.91
7264;BME280;3673;52.480;13.348;2023-02-12T06:41:23;103180.28;;;11.31;64.19
7264;BME280;3673;52.480;13.348;2023-02-12T06:43:50;103183.09;;;11.36;64.59
7264;BME280;3673;52.480;13.348;2023-02-12T06:46:16;103186.56;;;11.11;64.80
7264;BME280;3673;52.480;13.348;2023-02-12T06:48:43;103183.78;;;11.56;63.69
7264;BME280;3673;52.480;13.348;2023-02-12T06:51:15;103184.28;;;11.46;63.77
7264;BME280;3673;52.480;13.348;2023-02-12T06:53:43;103189.22;;;11.62;63.51
7264;BME280;3673;52.480;13.348;2023-02-12T06:56:11;103193.00;;;11.70;62.95
7264;BME280;3673;52.480;13.348;2023-02-12T06:58:40;103201.81;;;11.70;62.73
7264;BME280;3673;52.480;13.348;2023-02-12T07:01:08;103206.56;;;11.58;63.13
7264;BME280;3673;52.480;13.348;2023-02-12T07:03:38;103205.25;;;11.46;63.71
7264;BME280;3673;52.480;13.348;2023-02-12T07:06:05;103211.97;;;11.63;63.30
7264;BME280;3673;52.480;13.348;2023-02-12T07:08:34;103226.03;;;11.65;63.28
7264;BME280;3673;52.480;13.348;2023-02-12T07:11:01;103212.69;;;11.57;62.97
7264;BME280;3673;52.480;13.348;2023-02-12T07:13:27;103214.75;;;11.42;63.54
7264;BME280;3673;52.480;13.348;2023-02-12T07:15:54;103219.44;;;11.51;63.32
7264;BME280;3673;52.480;13.348;2023-02-12T07:18:21;103208.19;;;11.55;62.72
7264;BME280;3673;52.480;13.348;2023-02-12T07:20:48;103215.84;;;11.49;62.94
7264;BME280;3673;52.480;13.348;2023-02-12T07:23:14;103220.03;;;11.67;62.87
7264;BME280;3673;52.480;13.348;2023-02-12T07:25:42;103224.19;;;11.62;62.59
7264;BME280;3673;52.480;13.348;2023-02-12T07:28:09;103217.66;;;11.50;62.70
7264;BME280;3673;52.480;13.348;2023-02-12T07:30:37;103227.44;;;11.55;62.90
7264;BME280;3673;52.480;13.348;2023-02-12T07:33:03;103222.56;;;11.41;63.27
7264;BME280;3673;52.480;13.348;2023-02-12T07:35:30;103229.66;;;11.68;62.19
7264;BME280;3673;52.480;13.348;2023-02-12T07:37:57;103236.13;;;11.54;62.38
7264;BME280;3673;52.480;13.348;2023-02-12T07:40:24;103233.66;;;11.57;62.25
7264;BME280;3673;52.480;13.348;2023-02-12T07:42:55;103230.50;;;11.67;62.06
7264;BME280;3673;52.480;13.348;2023-02-12T07:45:23;103229.53;;;11.65;62.08
7264;BME280;3673;52.480;13.348;2023-02-12T07:47:49;103229.25;;;11.56;62.43
7264;BME280;3673;52.480;13.348;2023-02-12T07:50:17;103233.47;;;11.76;61.75
7264;BME280;3673;52.480;13.348;2023-02-12T07:52:44;103231.25;;;11.40;62.73
7264;BME280;3673;52.480;13.348;2023-02-12T07:55:11;103236.13;;;11.78;62.34
7264;BME280;3673;52.480;13.348;2023-02-12T07:57:37;103226.19;;;11.69;61.30
7264;BME280;3673;52.480;13.348;2023-02-12T08:00:08;103234.19;;;11.98;61.10
7264;BME280;3673;52.480;13.348;2023-02-12T08:02:35;103237.16;;;12.08;60.83
7264;BME280;3673;52.480;13.348;2023-02-12T08:05:02;103245.28;;;12.16;60.74
7264;BME280;3673;52.480;13.348;2023-02-12T08:07:28;103245.38;;;12.19;60.28
7264;BME280;3673;52.480;13.348;2023-02-12T08:09:55;103246.63;;;12.03;60.39
7264;BME280;3673;52.480;13.348;2023-02-12T08:12:22;103252.88;;;12.07;60.25
7264;BME280;3673;52.480;13.348;2023-02-12T08:14:49;103248.06;;;12.20;59.78
7264;BME280;3673;52.480;13.348;2023-02-12T08:17:17;103253.88;;;12.10;60.26
7264;BME280;3673;52.480;13.348;2023-02-12T08:19:43;103247.44;;;12.27;59.98
7264;BME280;3673;52.480;13.348;2023-02-12T08:22:10;103253.81;;;12.09;60.38
7264;BME280;3673;52.480;13.348;2023-02-12T08:24:38;103258.13;;;12.33;59.74
7264;BME280;3673;52.480;13.348;2023-02-12T08:27:05;103261.66;;;12.09;59.97
7264;BME280;3673;52.480;13.348;2023-02-12T08:29:31;103265.81;;;12.27;59.44
7264;BME280;3673;52.480;13.348;2023-02-12T08:32:00;103261.84;;;12.13;59.52
7264;BME280;3673;52.480;13.348;2023-02-12T08:34:31;103270.56;;;12.39;58.83
7264;BME280;3673;52.480;13.348;2023-02-12T08:36:59;103257.59;;;12.44;58.71
7264;BME280;3673;52.480;13.348;2023-02-12T08:39:27;103277.97;;;12.25;59.06
7264;BME280;3673;52.480;13.348;2023-02-12T08:41:56;103280.56;;;12.24;58.86
7264;BME280;3673;52.480;13.348;2023-02-12T08:44:24;103287.53;;;11.98;59.48
7264;BME280;3673;52.480;13.348;2023-02-12T08:46:51;103291.38;;;12.33;59.08
7264;BME280;3673;52.480;13.348;2023-02-12T08:49:21;103290.53;;;12.34;59.26
7264;BME280;3673;52.480;13.348;2023-02-12T08:51:52;103293.81;;;12.55;58.87
7264;BME280;3673;52.480;13.348;2023-02-12T08:54:21;103301.88;;;12.60;58.70
7264;BME280;3673;52.480;13.348;2023-02-12T08:56:49;103300.06;;;12.59;58.86
7264;BME280;3673;52.480;13.348;2023-02-12T08:59:16;103302.00;;;12.37;59.45
7264;BME280;3673;52.480;13.348;2023-02-12T09:01:44;103308.59;;;12.00;60.98
7264;BME280;3673;52.480;13.348;2023-02-12T09:04:15;103308.53;;;11.98;60.50
7264;BME280;3673;52.480;13.348;2023-02-12T09:06:43;103297.59;;;12.36;59.72
7264;BME280;3673;52.480;13.348;2023-02-12T09:09:12;103306.94;;;12.28;59.86
7264;BME280;3673;52.480;13.348;2023-02-12T09:11:39;103306.75;;;12.49;59.51
7264;BME280;3673;52.480;13.348;2023-02-12T09:14:10;103315.63;;;12.26;60.11
7264;BME280;3673;52.480;13.348;2023-02-12T09:16:37;103318.94;;;11.95;61.47
7264;BME280;3673;52.480;13.348;2023-02-12T09:19:05;103316.25;;;12.19;61.42
7264;BME280;3673;52.480;13.348;2023-02-12T09:21:32;103317.84;;;12.14;61.32
7264;BME280;3673;52.480;13.348;2023-02-12T09:24:01;103326.03;;;12.23;61.23
7264;BME280;3673;52.480;13.348;2023-02-12T09:26:29;103326.31;;;12.57;60.44
7264;BME280;3673;52.480;13.348;2023-02-12T09:28:57;103321.06;;;12.57;60.25
7264;BME280;3673;52.480;13.348;2023-02-12T09:31:26;103319.91;;;12.49;60.38
7264;BME280;3673;52.480;13.348;2023-02-12T09:33:57;103324.06;;;12.43;60.68
7264;BME280;3673;52.480;13.348;2023-02-12T09:36:24;103323.97;;;12.39;60.76
7264;BME280;3673;52.480;13.348;2023-02-12T09:38:51;103330.47;;;12.25;61.12
7264;BME280;3673;52.480;13.348;2023-02-12T09:41:36;103334.69;;;12.20;61.17
7264;BME280;3673;52.480;13.348;2023-02-12T09:44:16;103338.09;;;12.43;60.89
7264;BME280;3673;52.480;13.348;2023-02-12T09:46:51;103336.09;;;12.63;60.08
7264;BME280;3673;52.480;13.348;2023-02-12T09:49:38;103337.53;;;12.26;61.47
7264;BME280;3673;52.480;13.348;2023-02-12T09:52:14;103343.47;;;12.74;60.37
7264;BME280;3673;52.480;13.348;2023-02-12T09:54:42;103343.50;;;12.22;61.25
7264;BME280;3673;52.480;13.348;2023-02-12T09:57:18;103338.47;;;12.55;60.62
7264;BME280;3673;52.480;13.348;2023-02-12T09:59:51;103339.25;;;12.26;61.46
7264;BME280;3673;52.480;13.348;2023-02-12T10:02:23;103349.16;;;12.34;62.01
7264;BME280;3673;52.480;13.348;2023-02-12T10:04:52;103342.63;;;12.49;61.39
7264;BME280;3673;52.480;13.348;2023-02-12T10:07:30;103348.66;;;13.00;60.20
7264;BME280;3673;52.480;13.348;2023-02-12T10:10:15;103340.69;;;12.97;59.88
7264;BME280;3673;52.480;13.348;2023-02-12T10:12:53;103345.94;;;12.97;60.04
7264;BME280;3673;52.480;13.348;2023-02-12T10:15:37;103339.06;;;13.00;59.86
7264;BME280;3673;52.480;13.348;2023-02-12T10:18:25;103337.88;;;13.17;59.70
7264;BME280;3673;52.480;13.348;2023-02-12T10:21:08;103343.38;;;13.26;59.54
7264;BME280;3673;52.480;13.348;2023-02-12T10:23:55;103348.81;;;13.04;59.96
7264;BME280;3673;52.480;13.348;2023-02-12T10:26:30;103346.06;;;12.73;61.25
7264;BME280;3673;52.480;13.348;2023-02-12T10:29:09;103337.25;;;12.99;60.84
7264;BME280;3673;52.480;13.348;2023-02-12T10:31:40;103340.25;;;12.56;62.10
7264;BME280;3673;52.480;13.348;2023-02-12T10:34:17;103337.94;;;12.65;61.89
7264;BME280;3673;52.480;13.348;2023-02-12T10:36:46;103333.94;;;12.51;62.73
7264;BME280;3673;52.480;13.348;2023-02-12T10:39:20;103344.72;;;12.59;62.64
7264;BME280;3673;52.480;13.348;2023-02-12T10:41:54;103340.88;;;12.22;64.34
7264;BME280;3673;52.480;13.348;2023-02-12T10:44:25;103349.13;;;12.33;64.74
7264;BME280;3673;52.480;13.348;2023-02-12T10:46:52;103332.53;;;11.83;66.07
7264;BME280;3673;52.480;13.348;2023-02-12T10:49:20;103347.06;;;12.24;65.55
7264;BME280;3673;52.480;13.348;2023-02-12T10:52:04;103354.94;;;12.24;65.80
7264;BME280;3673;52.480;13.348;2023-02-12T10:54:38;103342.91;;;12.06;66.46
7264;BME280;3673;52.480;13.348;2023-02-12T10:57:19;103341.63;;;12.45;65.34
7264;BME280;3673;52.480;13.348;2023-02-12T10:59:51;103340.06;;;12.25;65.18
7264;BME280;3673;52.480;13.348;2023-02-12T11:02:25;103343.09;;;12.62;64.61
7264;BME280;3673;52.480;13.348;2023-02-12T11:04:53;103338.28;;;12.76;63.86
7264;BME280;3673;52.480;13.348;2023-02-12T11:07:22;103338.50;;;12.05;65.29
7264;BME280;3673;52.480;13.348;2023-02-12T11:09:51;103343.78;;;12.30;65.51
7264;BME280;3673;52.480;13.348;2023-02-12T11:12:25;103340.47;;;12.10;65.41
7264;BME280;3673;52.480;13.348;2023-02-12T11:14:57;103336.00;;;12.33;64.94
7264;BME280;3673;52.480;13.348;2023-02-12T11:17:30;103336.03;;;12.34;64.56
7264;BME280;3673;52.480;13.348;2023-02-12T11:20:07;103332.25;;;12.01;65.85
7264;BME280;3673;52.480;13.348;2023-02-12T11:22:54;103330.88;;;12.11;65.21
7264;BME280;3673;52.480;13.348;2023-02-12T11:25:23;103339.91;;;12.46;65.16
7264;BME280;3673;52.480;13.348;2023-02-12T11:28:04;103338.16;;;12.19;64.51
7264;BME280;3673;52.480;13.348;2023-02-12T11:30:33;103325.25;;;12.00;65.61
7264;BME280;3673;52.480;13.348;2023-02-12T11:33:22;103331.84;;;11.89;65.88
7264;BME280;3673;52.480;13.348;2023-02-12T11:35:53;103335.59;;;12.48;64.16
7264;BME280;3673;52.480;13.348;2023-02-12T11:38:28;103324.47;;;12.04;65.06
7264;BME280;3673;52.480;13.348;2023-02-12T11:41:00;103327.09;;;11.79;65.55
7264;BME280;3673;52.480;13.348;2023-02-12T11:43:28;103326.16;;;11.77;66.06
7264;BME280;3673;52.480;13.348;2023-02-12T11:45:58;103327.13;;;12.29;64.47
7264;BME280;3673;52.480;13.348;2023-02-12T11:48:30;103332.53;;;12.09;64.59
7264;BME280;3673;52.480;13.348;2023-02-12T11:51:01;103331.13;;;11.93;65.14
7264;BME280;3673;52.480;13.348;2023-02-12T11:53:31;103325.91;;;12.20;64.68
7264;BME280;3673;52.480;13.348;2023-02-12T11:56:03;103320.34;;;12.36;63.77
7264;BME280;3673;52.480;13.348;2023-02-12T11:58:30;103328.13;;;12.60;63.17
7264;BME280;3673;52.480;13.348;2023-02-12T12:01:08;103323.88;;;12.38;63.26
7264;BME280;3673;52.480;13.348;2023-02-12T12:03:44;103320.97;;;12.29;62.98
7264;BME280;3673;52.480;13.348;2023-02-12T12:06:24;103322.69;;;12.82;62.18
7264;BME280;3673;52.480;13.348;2023-02-12T12:08:58;103328.50;;;12.45;62.79
7264;BME280;3673;52.480;13.348;2023-02-12T12:11:33;103321.56;;;11.95;64.36
7264;BME280;3673;52.480;13.348;2023-02-12T12:14:07;103318.72;;;12.14;64.39
7264;BME280;3673;52.480;13.348;2023-02-12T12:16:46;103310.19;;;12.73;62.91
7264;BME280;3673;52.480;13.348;2023-02-12T12:19:39;103310.00;;;12.67;62.35
7264;BME280;3673;52.480;13.348;2023-02-12T12:22:32;103304.88;;;12.45;62.69
7264;BME280;3673;52.480;13.348;2023-02-12T12:25:10;103303.44;;;13.10;61.50
7264;BME280;3673;52.480;13.348;2023-02-12T12:27:47;103308.16;;;13.21;60.58
7264;BME280;3673;52.480;13.348;2023-02-12T12:33:38;103303.88;;;12.68;61.57
7264;BME280;3673;52.480;13.348;2023-02-12T12:36:42;103293.78;;;12.27;62.94
7264;BME280;3673;52.480;13.348;2023-02-12T12:39:23;103289.19;;;12.75;61.95
7264;BME280;3673;52.480;13.348;2023-02-12T12:42:27;103269.69;;;12.95;61.47
7264;BME280;3673;52.480;13.348;2023-02-12T12:45:16;103285.56;;;12.71;62.12
7264;BME280;3673;52.480;13.348;2023-02-12T12:47:59;103292.91;;;12.53;62.16
7264;BME280;3673;52.480;13.348;2023-02-12T12:50:56;103288.84;;;12.36;63.06
7264;BME280;3673;52.480;13.348;2023-02-12T12:53:41;103292.84;;;12.52;62.85
7264;BME280;3673;52.480;13.348;2023-02-12T12:56:23;103286.72;;;12.79;61.86
7264;BME280;3673;52.480;13.348;2023-02-12T12:59:15;103278.78;;;12.50;62.02
7264;BME280;3673;52.480;13.348;2023-02-12T13:08:09;103280.06;;;13.19;59.06
7264;BME280;3673;52.480;13.348;2023-02-12T13:10:45;103278.03;;;13.71;57.54
7264;BME280;3673;52.480;13.348;2023-02-12T13:13:23;103280.47;;;13.64;57.59
7264;BME280;3673;52.480;13.348;2023-02-12T13:15:58;103286.13;;;13.16;58.72
7264;BME280;3673;52.480;13.348;2023-02-12T13:18:47;103284.22;;;13.42;58.06
7264;BME280;3673;52.480;13.348;2023-02-12T13:21:30;103271.31;;;13.51;57.91
7264;BME280;3673;52.480;13.348;2023-02-12T13:24:04;103255.66;;;13.24;57.61
7264;BME280;3673;52.480;13.348;2023-02-12T13:26:46;103280.63;;;13.70;56.69
7264;BME280;3673;52.480;13.348;2023-02-12T13:29:18;103269.09;;;13.33;56.96
7264;BME280;3673;52.480;13.348;2023-02-12T13:31:52;103280.78;;;13.13;57.33
7264;BME280;3673;52.480;13.348;2023-02-12T13:34:20;103264.81;;;13.07;57.73
7264;BME280;3673;52.480;13.348;2023-02-12T13:36:48;103274.03;;;13.23;57.76
7264;BME280;3673;52.480;13.348;2023-02-12T13:39:25;103261.28;;;14.01;55.97